Time;durP1;ratioP1;P1;durP2;ratioP2;P2;SDS_P1;SDS_P2;PMS_P1;PMS_P2;Temp;Humidity;BMP_temperature;BMP_pressure;BME280_temperature;BME280_humidity;BME280_pressure;Samples;Min_cycle;Max_cycle;Signal;HPM_P1;HPM_P2
2023/05/10 00:02:01;;;;;;;9.90;9.70;;;23.00;94.80;;;;;;5031519;28;20992;-62
2023/05/10 00:04:28;;;;;;;9.57;9.37;;;23.00;94.90;;;;;;5031764;28;20464;-61
2023/05/10 00:06:55;;;;;;;9.80;9.60;;;23.00;94.80;;;;;;5031454;28;21003;-62
2023/05/10 00:09:22;;;;;;;10.67;10.40;;;23.00;94.80;;;;;;5031459;28;20445;-63
2023/05/10 00:11:49;;;;;;;9.80;9.60;;;23.00;94.90;;;;;;5031200;28;20500;-62
2023/05/10 00:14:18;;;;;;;10.20;10.00;;;23.00;94.80;;;;;;5031692;28;20476;-63
2023/05/10 00:16:45;;;;;;;9.90;9.70;;;23.00;94.90;;;;;;5031281;28;20441;-62
2023/05/10 00:19:12;;;;;;;10.37;10.07;;;23.00;94.80;;;;;;5031674;28;20522;-63
2023/05/10 00:21:39;;;;;;;10.27;9.97;;;23.00;94.80;;;;;;5030421;28;20899;-62
2023/05/10 00:24:06;;;;;;;10.13;9.83;;;23.00;94.90;;;;;;5034063;28;20481;-63
2023/05/10 00:26:33;;;;;;;9.97;9.77;;;23.00;94.90;;;;;;5034852;28;21030;-62
2023/05/10 00:29:00;;;;;;;10.30;9.90;;;22.90;94.90;;;;;;5035052;28;20477;-63
2023/05/10 00:31:28;;;;;;;9.90;9.70;;;23.00;95.00;;;;;;5034744;28;20528;-63
2023/05/10 00:33:55;;;;;;;10.17;9.97;;;23.00;94.90;;;;;;5035156;28;20491;-61
2023/05/10 00:36:22;;;;;;;9.90;9.60;;;23.00;95.00;;;;;;5034800;28;20473;-62
2023/05/10 00:38:49;;;;;;;9.90;9.60;;;23.00;94.90;;;;;;5035043;28;20468;-63
2023/05/10 00:41:16;;;;;;;10.50;10.20;;;22.90;94.90;;;;;;5034621;28;20473;-62
2023/05/10 00:43:43;;;;;;;10.27;10.07;;;23.00;95.00;;;;;;5034650;28;20865;-62
2023/05/10 00:46:10;;;;;;;10.30;10.00;;;23.00;94.90;;;;;;5034663;28;20512;-62
2023/05/10 00:48:39;;;;;;;9.80;9.60;;;22.90;94.90;;;;;;5034419;28;20936;-62
2023/05/10 00:51:07;;;;;;;10.50;10.20;;;22.90;94.90;;;;;;5034320;28;20790;-62
2023/05/10 00:53:35;;;;;;;10.00;9.80;;;22.90;94.90;;;;;;5034625;28;20471;-62
2023/05/10 00:56:02;;;;;;;9.73;9.53;;;22.90;95.00;;;;;;5034388;28;20529;-62
2023/05/10 00:58:30;;;;;;;9.93;9.63;;;22.90;95.00;;;;;;5034202;28;20887;-62
2023/05/10 01:00:58;;;;;;;9.53;9.33;;;22.90;94.90;;;;;;5034232;28;21035;-63
2023/05/10 01:03:26;;;;;;;10.57;10.27;;;22.90;94.90;;;;;;5034279;28;20556;-63
2023/05/10 01:05:54;;;;;;;10.73;10.43;;;22.90;94.90;;;;;;5033967;28;20449;-62
2023/05/10 01:08:21;;;;;;;9.73;9.53;;;22.90;94.90;;;;;;5033839;28;20441;-63
2023/05/10 01:10:49;;;;;;;9.97;9.67;;;22.90;94.90;;;;;;5033950;28;20469;-63
2023/05/10 01:13:29;;;;;;;10.13;9.93;;;22.90;94.90;;;;;;5091219;22;20541;-54
2023/05/10 01:15:57;;;;;;;10.77;10.47;;;22.80;94.90;;;;;;5074156;28;21119;-58
2023/05/10 01:18:24;;;;;;;10.20;10.00;;;22.90;94.90;;;;;;5073811;28;20854;-58
2023/05/10 01:21:14;;;;;;;10.40;10.20;;;22.80;94.80;;;;;;5067977;28;20476;-57
2023/05/10 01:23:56;;;;;;;10.40;10.20;;;22.80;94.80;;;;;;5036130;28;20465;-59
2023/05/10 01:26:53;;;;;;;10.20;10.00;;;22.80;94.80;;;;;;5033903;28;20508;-58
2023/05/10 01:29:48;;;;;;;9.70;9.50;;;22.80;94.80;;;;;;5031627;28;20489;-58
2023/05/10 01:32:26;;;;;;;10.00;9.80;;;22.80;94.80;;;;;;5033068;28;20505;-55
2023/05/10 01:35:00;;;;;;;13.93;13.43;;;22.80;94.90;;;;;;5033139;28;20512;-57
2023/05/10 01:37:34;;;;;;;10.60;10.30;;;22.80;94.80;;;;;;5033786;28;20851;-57
2023/05/10 01:40:09;;;;;;;10.20;10.00;;;22.80;94.90;;;;;;5033582;28;20455;-56
2023/05/10 01:42:43;;;;;;;9.90;9.70;;;22.80;94.90;;;;;;5028377;28;20506;-56
2023/05/10 01:45:19;;;;;;;10.73;10.43;;;22.80;94.90;;;;;;5033611;28;20563;-54
2023/05/10 01:47:54;;;;;;;9.97;9.77;;;22.80;94.90;;;;;;5033214;28;20488;-56
2023/05/10 01:50:26;;;;;;;10.27;10.07;;;22.80;94.90;;;;;;5026991;28;20496;-56
2023/05/10 01:52:56;;;;;;;10.00;9.70;;;22.70;94.90;;;;;;5013649;28;20529;-58
2023/05/10 01:55:27;;;;;;;10.43;10.20;;;22.70;94.90;;;;;;5013539;28;20516;-57
2023/05/10 01:58:01;;;;;;;10.67;10.37;;;22.80;94.90;;;;;;5013278;28;20474;-55
2023/05/10 02:00:29;;;;;;;10.30;10.10;;;22.70;94.90;;;;;;5014748;28;20956;-58
2023/05/10 02:02:59;;;;;;;10.00;9.70;;;22.70;95.00;;;;;;5020275;28;20493;-56
2023/05/10 02:05:27;;;;;;;9.67;9.47;;;22.70;94.90;;;;;;5025244;28;20993;-57
2023/05/10 02:07:55;;;;;;;10.07;9.77;;;22.70;95.00;;;;;;5019817;28;20473;-56
2023/05/10 02:10:22;;;;;;;10.00;9.80;;;22.70;94.90;;;;;;5013140;28;20784;-60
2023/05/10 02:12:50;;;;;;;9.87;9.67;;;22.70;94.90;;;;;;5022320;28;20500;-59
2023/05/10 02:15:21;;;;;;;10.30;10.00;;;22.70;94.90;;;;;;5033005;28;20485;-59
2023/05/10 02:17:49;;;;;;;10.47;10.13;;;22.70;94.90;;;;;;5033009;28;20445;-58
2023/05/10 02:20:19;;;;;;;10.30;10.00;;;22.70;94.90;;;;;;5032988;28;20441;-58
2023/05/10 02:22:50;;;;;;;9.93;9.73;;;22.70;95.00;;;;;;5032678;28;20500;-57
2023/05/10 02:25:18;;;;;;;10.60;10.30;;;22.70;95.10;;;;;;5020975;28;20941;-59
2023/05/10 02:27:46;;;;;;;10.80;10.50;;;22.70;95.10;;;;;;5012646;28;21039;-57
2023/05/10 02:30:14;;;;;;;10.20;10.00;;;22.70;95.10;;;;;;5012857;28;20489;-56
2023/05/10 02:32:42;;;;;;;10.57;10.27;;;22.70;95.00;;;;;;5013094;28;21020;-57
2023/05/10 02:35:11;;;;;;;10.50;10.20;;;22.70;95.00;;;;;;5012903;28;20869;-56
2023/05/10 02:37:40;;;;;;;10.40;10.10;;;22.70;95.00;;;;;;5012944;28;20898;-58
2023/05/10 02:40:09;;;;;;;10.20;9.90;;;22.70;95.00;;;;;;5012912;28;20474;-57
2023/05/10 02:42:38;;;;;;;11.00;10.70;;;22.70;95.00;;;;;;5012651;28;20505;-58
2023/05/10 02:45:11;;;;;;;9.73;9.53;;;22.70;94.90;;;;;;5012248;28;20482;-57
2023/05/10 02:47:38;;;;;;;10.20;9.90;;;22.70;94.90;;;;;;5012893;28;20493;-57
2023/05/10 02:50:06;;;;;;;9.73;9.43;;;22.70;95.00;;;;;;5012813;28;20865;-57
2023/05/10 02:52:42;;;;;;;9.60;9.40;;;22.70;95.00;;;;;;5012437;28;21023;-59
2023/05/10 02:55:12;;;;;;;9.90;9.70;;;22.60;95.00;;;;;;5012812;28;20452;-58
2023/05/10 02:57:44;;;;;;;10.90;10.60;;;22.70;95.00;;;;;;5027831;28;20441;-55
2023/05/10 03:00:12;;;;;;;10.33;10.03;;;22.70;95.00;;;;;;5032217;28;20492;-55
2023/05/10 03:02:39;;;;;;;10.60;10.30;;;22.70;95.00;;;;;;5031876;28;20497;-58
2023/05/10 03:05:06;;;;;;;10.67;10.37;;;22.60;94.90;;;;;;5032307;28;20453;-57
2023/05/10 03:07:34;;;;;;;10.80;10.50;;;22.70;94.90;;;;;;5017283;28;20573;-56
2023/05/10 03:10:03;;;;;;;11.33;11.03;;;22.60;94.90;;;;;;5012286;28;20980;-58
2023/05/10 03:12:42;;;;;;;11.07;10.77;;;22.60;94.90;;;;;;5012114;28;20478;-58
2023/05/10 03:15:17;;;;;;;10.40;10.10;;;22.60;94.90;;;;;;5012367;28;20446;-58
2023/05/10 03:17:49;;;;;;;11.23;10.93;;;22.60;94.90;;;;;;5012062;28;20497;-59
2023/05/10 03:20:23;;;;;;;11.30;11.00;;;22.70;94.90;;;;;;5012253;28;20501;-58
2023/05/10 03:22:56;;;;;;;11.27;10.97;;;22.60;94.90;;;;;;5012264;28;20491;-58
2023/05/10 03:25:24;;;;;;;12.00;11.70;;;22.60;94.90;;;;;;5012246;28;20478;-57
2023/05/10 03:27:53;;;;;;;10.90;10.60;;;22.60;94.90;;;;;;5012027;28;20514;-58
2023/05/10 03:30:20;;;;;;;11.50;11.20;;;22.60;94.90;;;;;;5013247;28;20478;-58
2023/05/10 03:32:47;;;;;;;11.10;10.80;;;22.60;95.30;;;;;;5012455;28;20474;-57
2023/05/10 03:35:14;;;;;;;11.50;11.20;;;22.60;94.90;;;;;;5012597;28;20481;-58
2023/05/10 03:37:41;;;;;;;11.70;11.40;;;22.60;94.90;;;;;;5012027;28;20945;-57
2023/05/10 03:40:09;;;;;;;12.17;11.80;;;22.60;94.90;;;;;;5012244;28;20482;-56
2023/05/10 03:42:38;;;;;;;11.80;11.50;;;22.60;94.90;;;;;;5012190;28;20524;-58
2023/05/10 03:45:05;;;;;;;12.00;11.70;;;22.60;94.90;;;;;;5012360;28;20483;-56
2023/05/10 03:47:32;;;;;;;11.60;11.30;;;22.60;94.90;;;;;;5011843;28;20517;-57
2023/05/10 03:49:59;;;;;;;11.70;11.20;;;22.60;94.90;;;;;;5012214;28;20477;-57
2023/05/10 03:52:26;;;;;;;11.90;11.50;;;22.60;94.90;;;;;;5031122;28;20511;-58
2023/05/10 03:54:53;;;;;;;11.60;11.30;;;22.60;94.90;;;;;;5031617;28;20480;-58
2023/05/10 03:57:20;;;;;;;11.07;10.77;;;22.60;94.90;;;;;;5032963;28;20483;-57
2023/05/10 03:59:48;;;;;;;11.80;11.50;;;22.60;94.90;;;;;;5023869;28;20481;-57
2023/05/10 04:02:15;;;;;;;11.40;11.10;;;22.50;94.90;;;;;;5015761;28;20508;-56
2023/05/10 04:04:42;;;;;;;12.13;11.73;;;22.60;94.80;;;;;;5015384;28;20871;-59
2023/05/10 04:07:10;;;;;;;12.00;11.70;;;22.60;94.90;;;;;;5015282;28;20513;-58
2023/05/10 04:09:37;;;;;;;11.87;11.57;;;22.50;94.90;;;;;;5021227;28;20443;-59
2023/05/10 04:12:04;;;;;;;12.03;11.73;;;22.50;94.90;;;;;;5034966;28;20508;-57
2023/05/10 04:14:31;;;;;;;13.33;13.03;;;22.50;94.90;;;;;;5035284;28;20460;-57
2023/05/10 04:16:59;;;;;;;13.00;12.60;;;22.60;94.90;;;;;;5035062;28;20491;-58
2023/05/10 04:19:30;;;;;;;11.77;11.47;;;22.60;94.80;;;;;;5035313;28;20510;-58
2023/05/10 04:21:57;;;;;;;12.87;12.50;;;22.50;94.80;;;;;;5023658;28;20489;-58
2023/05/10 04:24:24;;;;;;;12.63;12.23;;;22.60;94.80;;;;;;5033189;28;20488;-58
2023/05/10 04:26:51;;;;;;;12.77;12.47;;;22.60;94.80;;;;;;5034718;28;20866;-58
2023/05/10 04:29:18;;;;;;;13.13;12.73;;;22.50;94.80;;;;;;5035143;28;20488;-58
2023/05/10 04:31:44;;;;;;;12.93;12.60;;;22.50;94.80;;;;;;5034800;28;20967;-59
2023/05/10 04:34:13;;;;;;;13.30;12.90;;;22.50;94.80;;;;;;5033351;28;20868;-56
2023/05/10 04:36:40;;;;;;;13.50;13.10;;;22.50;94.80;;;;;;5034502;28;20488;-56
2023/05/10 04:39:07;;;;;;;11.63;11.33;;;22.50;95.20;;;;;;5034827;28;20875;-58
2023/05/10 04:41:34;;;;;;;12.20;11.90;;;22.50;94.90;;;;;;5034506;28;20477;-57
2023/05/10 04:44:01;;;;;;;13.43;13.03;;;22.50;94.90;;;;;;5022323;28;20457;-58
2023/05/10 04:46:28;;;;;;;12.00;11.70;;;22.50;94.90;;;;;;5014733;28;20953;-57
2023/05/10 04:48:54;;;;;;;12.23;11.83;;;22.50;94.90;;;;;;5014614;28;20527;-56
2023/05/10 04:51:23;;;;;;;11.23;10.93;;;22.50;94.90;;;;;;5014549;28;20509;-58
2023/05/10 04:53:50;;;;;;;12.07;11.77;;;22.50;95.00;;;;;;5014649;28;20494;-57
2023/05/10 04:56:17;;;;;;;12.27;11.97;;;22.40;94.90;;;;;;5014819;28;20933;-59
2023/05/10 04:58:44;;;;;;;11.73;11.43;;;22.50;95.00;;;;;;5014676;28;20470;-60
2023/05/10 05:01:11;;;;;;;12.20;11.80;;;22.40;95.00;;;;;;5014616;28;20540;-58
2023/05/10 05:03:38;;;;;;;12.67;12.17;;;22.50;95.10;;;;;;5018256;28;21200;-56
2023/05/10 05:06:05;;;;;;;12.40;12.00;;;22.50;95.10;;;;;;5033956;28;20477;-58
2023/05/10 05:08:33;;;;;;;12.60;12.30;;;22.50;95.10;;;;;;5033032;28;20559;-58
2023/05/10 05:11:00;;;;;;;14.23;13.37;;;22.50;95.10;;;;;;5033783;28;20539;-62
2023/05/10 05:13:27;;;;;;;13.37;12.87;;;22.50;96.30;;;;;;5031679;28;20520;-60
2023/05/10 05:15:54;;;;;;;13.97;13.50;;;22.60;95.70;;;;;;5033690;28;20480;-56
2023/05/10 05:18:21;;;;;;;14.43;13.93;;;22.70;96.60;;;;;;5033872;28;20445;-59
2023/05/10 05:20:48;;;;;;;13.43;13.03;;;22.70;96.90;;;;;;5034241;28;20488;-55
2023/05/10 05:23:15;;;;;;;13.47;12.97;;;22.70;96.50;;;;;;5033192;28;20503;-58
2023/05/10 05:25:43;;;;;;;13.67;13.17;;;22.80;97.40;;;;;;5019082;28;20489;-60
2023/05/10 05:28:10;;;;;;;14.90;14.30;;;22.80;96.40;;;;;;5013165;28;20492;-57
2023/05/10 05:30:37;;;;;;;13.63;13.13;;;22.80;96.40;;;;;;5013281;28;20481;-56
2023/05/10 05:33:04;;;;;;;14.73;14.23;;;22.90;96.30;;;;;;5013215;28;20494;-59
2023/05/10 05:35:31;;;;;;;14.27;13.77;;;22.90;96.20;;;;;;5013519;28;20508;-58
2023/05/10 05:37:57;;;;;;;14.43;13.93;;;22.90;95.60;;;;;;5013016;28;20480;-60
2023/05/10 05:40:24;;;;;;;14.33;13.73;;;23.00;95.80;;;;;;5013145;28;20930;-57
2023/05/10 05:42:53;;;;;;;13.87;13.00;;;23.00;95.50;;;;;;5013049;28;20858;-57
2023/05/10 05:45:20;;;;;;;14.33;13.93;;;23.00;95.50;;;;;;5012957;28;20492;-57
2023/05/10 05:47:47;;;;;;;14.50;13.97;;;23.00;95.30;;;;;;5013974;28;20920;-58
2023/05/10 05:50:14;;;;;;;14.57;14.10;;;23.10;95.10;;;;;;5012996;28;20473;-58
2023/05/10 05:52:41;;;;;;;15.10;14.53;;;23.10;95.00;;;;;;5012816;28;20517;-57
2023/05/10 05:55:08;;;;;;;14.33;13.83;;;23.10;94.80;;;;;;5013239;28;20840;-58
2023/05/10 05:57:35;;;;;;;14.10;13.60;;;23.20;95.00;;;;;;5012730;28;20481;-55
2023/05/10 06:00:04;;;;;;;13.43;13.03;;;23.20;95.30;;;;;;5012847;28;20492;-54
2023/05/10 06:02:31;;;;;;;14.30;13.67;;;23.20;95.30;;;;;;5012685;28;20532;-56
2023/05/10 06:04:59;;;;;;;14.23;13.73;;;23.20;95.30;;;;;;5019381;28;20839;-56
2023/05/10 06:07:26;;;;;;;14.60;14.20;;;23.30;95.10;;;;;;5032305;28;20473;-55
2023/05/10 06:09:53;;;;;;;14.90;14.40;;;23.30;94.90;;;;;;5032509;28;20492;-54
2023/05/10 06:12:20;;;;;;;14.90;14.30;;;23.30;94.70;;;;;;5030735;28;20541;-57
2023/05/10 06:14:47;;;;;;;13.82;13.23;;;23.30;94.50;;;;;;5012582;28;20447;-58
2023/05/10 06:17:15;;;;;;;14.90;14.43;;;23.30;94.40;;;;;;5012871;28;20713;-56
2023/05/10 06:19:42;;;;;;;15.37;14.87;;;23.40;94.70;;;;;;5012983;28;20474;-57
2023/05/10 06:22:09;;;;;;;15.30;14.80;;;23.40;94.70;;;;;;5013072;28;20458;-60
2023/05/10 06:24:36;;;;;;;14.63;14.07;;;23.40;94.30;;;;;;5016085;28;20473;-53
2023/05/10 06:27:03;;;;;;;14.20;13.80;;;23.40;94.70;;;;;;5012571;28;20442;-58
2023/05/10 06:29:30;;;;;;;13.90;13.37;;;23.50;94.60;;;;;;5012521;28;20577;-57
2023/05/10 06:31:58;;;;;;;13.60;13.10;;;23.40;94.60;;;;;;5012659;28;20493;-58
2023/05/10 06:34:26;;;;;;;16.53;15.70;;;23.50;94.60;;;;;;5012559;28;20446;-57
2023/05/10 06:36:53;;;;;;;14.83;14.33;;;23.40;94.70;;;;;;5031114;28;20575;-58
2023/05/10 06:39:20;;;;;;;13.20;12.80;;;23.50;94.40;;;;;;5031903;28;20789;-57
2023/05/10 06:41:47;;;;;;;13.90;13.43;;;23.50;94.30;;;;;;5032052;28;20452;-57
2023/05/10 06:44:14;;;;;;;15.20;14.60;;;23.40;94.50;;;;;;5032071;28;20513;-57
2023/05/10 06:46:41;;;;;;;14.80;14.40;;;23.40;94.50;;;;;;5013995;28;20446;-59
2023/05/10 06:49:08;;;;;;;15.17;14.57;;;23.40;94.30;;;;;;5011889;28;20494;-59
2023/05/10 06:51:37;;;;;;;14.07;13.63;;;23.40;94.10;;;;;;5011926;28;20717;-59
2023/05/10 06:54:04;;;;;;;14.43;13.93;;;23.50;93.80;;;;;;5011833;28;20969;-62
2023/05/10 06:56:30;;;;;;;14.93;14.43;;;23.50;93.70;;;;;;5012336;28;20456;-60
2023/05/10 06:58:57;;;;;;;15.03;14.50;;;23.50;93.60;;;;;;5017686;28;20484;-60
2023/05/10 07:01:25;;;;;;;14.43;14.03;;;23.40;93.50;;;;;;5031567;28;20807;-58
2023/05/10 07:03:52;;;;;;;15.50;15.00;;;23.40;93.40;;;;;;5031465;28;20523;-61
2023/05/10 07:06:19;;;;;;;15.23;14.63;;;23.40;94.00;;;;;;5031291;28;20475;-56
2023/05/10 07:08:48;;;;;;;14.07;13.57;;;23.50;93.80;;;;;;5029019;28;20488;-56
2023/05/10 07:11:15;;;;;;;14.70;14.23;;;23.50;94.10;;;;;;5011817;28;20482;-54
2023/05/10 07:13:43;;;;;;;13.97;13.50;;;23.50;94.00;;;;;;5012424;28;20536;-56
2023/05/10 07:16:11;;;;;;;13.97;13.53;;;23.40;94.00;;;;;;5012215;28;20446;-58
2023/05/10 07:18:37;;;;;;;14.33;13.83;;;23.40;94.20;;;;;;5012546;28;20458;-56
2023/05/10 07:21:04;;;;;;;12.70;12.20;;;23.40;94.20;;;;;;5011116;28;20446;-61
2023/05/10 07:23:31;;;;;;;15.97;15.40;;;23.40;94.40;;;;;;5011647;28;20249;-60
2023/05/10 07:26:00;;;;;;;15.10;14.60;;;23.50;94.10;;;;;;5011512;28;20486;-62
2023/05/10 07:28:27;;;;;;;17.03;16.53;;;23.50;93.80;;;;;;5011773;28;20925;-60
2023/05/10 07:30:53;;;;;;;15.20;14.70;;;23.60;93.70;;;;;;5011747;28;20481;-54
2023/05/10 07:33:20;;;;;;;16.07;15.57;;;23.50;93.70;;;;;;5014572;28;20506;-58
2023/05/10 07:35:47;;;;;;;15.17;14.70;;;23.60;93.80;;;;;;5015605;28;20480;-59
2023/05/10 07:38:14;;;;;;;14.80;14.40;;;23.60;93.80;;;;;;5015661;28;20453;-60
2023/05/10 07:40:41;;;;;;;15.83;15.20;;;23.60;93.90;;;;;;5031036;28;20511;-59
2023/05/10 07:43:09;;;;;;;15.60;15.10;;;23.60;93.70;;;;;;5015593;28;20561;-59
2023/05/10 07:45:36;;;;;;;14.80;14.30;;;23.50;93.70;;;;;;5015597;28;20485;-58
2023/05/10 07:48:03;;;;;;;15.40;14.80;;;23.50;93.80;;;;;;5015075;28;20442;-59
2023/05/10 07:50:30;;;;;;;15.17;14.67;;;23.50;93.80;;;;;;5015662;28;20482;-58
2023/05/10 07:52:57;;;;;;;14.37;13.97;;;23.50;93.60;;;;;;5018510;28;20497;-63
2023/05/10 07:55:24;;;;;;;15.83;15.33;;;23.50;93.80;;;;;;5034151;28;20479;-61
2023/05/10 07:57:51;;;;;;;15.37;14.87;;;23.50;93.50;;;;;;5027224;28;20550;-61
2023/05/10 08:00:21;;;;;;;15.73;15.13;;;23.50;93.60;;;;;;5035539;28;20936;-59
2023/05/10 08:02:48;;;;;;;14.43;14.00;;;23.50;93.70;;;;;;5035217;28;20948;-65
2023/05/10 08:05:15;;;;;;;15.20;14.70;;;23.50;93.80;;;;;;5034990;28;20472;-59
2023/05/10 08:07:42;;;;;;;14.77;13.90;;;23.50;93.60;;;;;;5034583;28;20496;-58
2023/05/10 08:10:11;;;;;;;15.13;14.73;;;23.60;94.60;;;;;;5035367;28;21006;-58
2023/05/10 08:12:39;;;;;;;15.80;15.30;;;23.60;94.40;;;;;;5034881;28;20484;-58
2023/05/10 08:15:07;;;;;;;15.30;14.80;;;23.60;94.60;;;;;;5034968;28;20539;-63
2023/05/10 08:17:35;;;;;;;14.80;14.30;;;23.60;94.30;;;;;;5029140;28;20450;-58
2023/05/10 08:20:03;;;;;;;14.60;14.20;;;23.60;94.00;;;;;;5014900;28;20473;-59
2023/05/10 08:22:30;;;;;;;16.20;15.70;;;23.70;94.20;;;;;;5014721;28;20505;-58
2023/05/10 08:24:56;;;;;;;14.60;14.10;;;23.60;94.00;;;;;;5014900;28;20449;-62
2023/05/10 08:27:23;;;;;;;15.03;14.43;;;23.60;94.20;;;;;;5030442;28;20480;-58
2023/05/10 08:29:50;;;;;;;15.07;14.67;;;23.70;94.10;;;;;;5034305;28;20481;-59
2023/05/10 08:32:17;;;;;;;15.30;14.80;;;23.70;94.30;;;;;;5034387;28;20504;-58
2023/05/10 08:34:46;;;;;;;16.33;15.73;;;23.70;94.20;;;;;;5034511;28;20549;-59
2023/05/10 08:37:13;;;;;;;15.70;15.20;;;23.70;93.80;;;;;;5019816;28;20450;-62
2023/05/10 08:39:40;;;;;;;15.60;15.10;;;23.70;93.70;;;;;;5016957;28;20480;-63
2023/05/10 08:42:08;;;;;;;15.90;15.30;;;23.60;94.10;;;;;;5034360;28;20886;-60
2023/05/10 08:44:36;;;;;;;17.07;16.43;;;23.70;94.40;;;;;;5019067;28;20442;-61
2023/05/10 08:47:07;;;;;;;16.13;15.53;;;23.60;94.50;;;;;;5014281;28;20501;-58
2023/05/10 08:49:34;;;;;;;15.37;14.87;;;23.70;94.80;;;;;;5014053;28;20481;-59
2023/05/10 08:52:05;;;;;;;15.23;14.73;;;23.60;94.80;;;;;;5013955;28;20477;-61
2023/05/10 08:54:33;;;;;;;15.67;15.07;;;23.60;94.70;;;;;;5027334;28;20455;-60
2023/05/10 08:57:00;;;;;;;15.00;14.50;;;23.50;94.90;;;;;;5038781;28;20435;-61
2023/05/10 08:59:28;;;;;;;15.90;15.30;;;23.60;95.10;;;;;;5053993;28;20926;-61
2023/05/10 09:01:58;;;;;;;14.20;13.80;;;23.60;94.50;;;;;;5053859;28;20503;-62
2023/05/10 09:04:25;;;;;;;15.53;14.83;;;23.70;94.80;;;;;;5053775;28;20886;-60
2023/05/10 09:06:53;;;;;;;15.83;15.23;;;23.70;95.40;;;;;;5044929;28;20552;-60
2023/05/10 09:09:22;;;;;;;16.03;15.43;;;23.70;95.50;;;;;;5033925;28;20511;-60
2023/05/10 09:11:49;;;;;;;14.77;14.17;;;23.70;95.50;;;;;;5033257;28;20503;-58
2023/05/10 09:14:17;;;;;;;16.27;15.67;;;23.60;95.50;;;;;;5033520;28;20472;-60
2023/05/10 09:16:44;;;;;;;16.50;15.80;;;23.60;95.70;;;;;;5027637;28;20438;-59
2023/05/10 09:19:11;;;;;;;15.47;14.90;;;23.70;95.40;;;;;;5013517;28;20477;-59
2023/05/10 09:21:39;;;;;;;17.10;16.40;;;23.70;95.10;;;;;;5013216;28;20461;-61
2023/05/10 09:24:07;;;;;;;16.67;16.10;;;23.60;95.10;;;;;;5013593;28;20446;-59
2023/05/10 09:26:35;;;;;;;16.47;15.83;;;23.70;95.50;;;;;;5013625;28;20489;-59
2023/05/10 09:29:03;;;;;;;16.03;15.43;;;23.70;94.80;;;;;;5013157;28;21310;-59
2023/05/10 09:31:50;;;;;;;15.90;15.30;;;23.70;95.10;;;;;;5013194;28;20450;-61
2023/05/10 09:34:19;;;;;;;15.67;15.07;;;23.70;94.50;;;;;;5013213;28;20454;-64
2023/05/10 09:36:57;;;;;;;16.80;16.00;;;23.70;94.60;;;;;;5013016;28;20516;-61
2023/05/10 09:39:32;;;;;;;15.97;15.37;;;23.70;94.20;;;;;;5022004;28;20444;-63
2023/05/10 09:42:03;;;;;;;16.50;15.77;;;23.70;94.30;;;;;;5033171;28;20468;-63
2023/05/10 09:44:34;;;;;;;16.17;15.57;;;23.60;94.40;;;;;;5032975;28;20503;-63
2023/05/10 09:47:01;;;;;;;17.00;16.20;;;23.60;94.70;;;;;;5032580;28;21007;-58
2023/05/10 09:49:28;;;;;;;16.10;15.50;;;23.60;95.00;;;;;;5023038;28;20517;-62
2023/05/10 09:52:03;;;;;;;16.17;15.60;;;23.60;94.60;;;;;;5012924;28;20505;-62
2023/05/10 09:54:30;;;;;;;15.87;15.27;;;23.70;94.80;;;;;;5012566;28;20461;-64
2023/05/10 09:56:57;;;;;;;16.00;15.40;;;23.70;94.70;;;;;;5013105;28;20881;-61
2023/05/10 09:59:28;;;;;;;16.83;16.03;;;23.70;94.70;;;;;;5020408;28;20473;-62
2023/05/10 10:01:57;;;;;;;16.97;16.37;;;23.70;95.60;;;;;;5033186;28;20876;-57
2023/05/10 10:04:24;;;;;;;16.30;15.73;;;23.80;95.60;;;;;;5033114;28;20823;-59
2023/05/10 10:07:01;;;;;;;15.87;15.27;;;23.70;95.40;;;;;;5032495;28;20468;-61
2023/05/10 10:09:29;;;;;;;17.27;16.60;;;23.70;95.30;;;;;;5032347;28;20484;-60
2023/05/10 10:11:56;;;;;;;16.00;15.40;;;23.70;95.20;;;;;;5031898;28;20528;-58
2023/05/10 10:14:23;;;;;;;16.33;15.73;;;23.70;95.10;;;;;;5032414;28;20441;-59
2023/05/10 10:16:52;;;;;;;18.30;17.50;;;23.60;95.00;;;;;;5032154;28;20485;-60
2023/05/10 10:19:20;;;;;;;18.00;17.40;;;23.60;94.80;;;;;;5032269;28;20990;-60
2023/05/10 10:21:47;;;;;;;17.17;16.47;;;23.70;94.90;;;;;;5032094;28;20441;-61
2023/05/10 10:24:14;;;;;;;17.70;16.90;;;23.70;95.00;;;;;;5018524;28;20450;-61
2023/05/10 10:26:43;;;;;;;16.13;15.53;;;23.70;94.70;;;;;;5012201;28;20449;-59
2023/05/10 10:29:21;;;;;;;15.45;14.80;;;23.70;94.80;;;;;;5011837;28;20450;-59
2023/05/10 10:31:59;;;;;;;17.20;16.50;;;23.70;94.80;;;;;;5012220;28;20242;-59
2023/05/10 10:34:28;;;;;;;17.07;16.47;;;23.70;93.70;;;;;;5026821;28;20448;-63
2023/05/10 10:36:57;;;;;;;17.23;16.33;;;23.70;93.80;;;;;;5031951;28;20453;-63
2023/05/10 10:39:25;;;;;;;17.17;16.47;;;23.70;93.70;;;;;;5031799;28;20445;-59
2023/05/10 10:53:55;;;;;;;18.60;17.87;;;23.70;93.60;;;;;;5110455;27;20387;-66
2023/05/10 10:56:24;;;;;;;16.97;16.37;;;23.90;93.60;;;;;;5091981;28;20863;-66
2023/05/10 10:58:53;;;;;;;16.70;16.10;;;23.90;93.40;;;;;;5091508;28;20493;-67
2023/05/10 11:01:20;;;;;;;17.20;16.60;;;23.90;93.40;;;;;;5091857;28;21018;-67
2023/05/10 11:04:18;;;;;;;17.80;17.20;;;23.90;93.30;;;;;;5091231;28;20481;-67
2023/05/10 11:06:45;;;;;;;17.37;16.50;;;23.80;93.30;;;;;;5092719;28;20435;-67
2023/05/10 11:09:13;;;;;;;16.70;16.10;;;23.90;93.50;;;;;;5090016;28;20474;-65
2023/05/10 11:11:50;;;;;;;17.53;16.83;;;23.80;93.70;;;;;;5090133;28;20466;-63
2023/05/10 11:14:21;;;;;;;16.80;16.20;;;23.80;93.90;;;;;;5089523;28;20489;-67
2023/05/10 11:16:48;;;;;;;16.30;15.70;;;23.80;93.90;;;;;;5089645;28;20478;-68
2023/05/10 11:19:16;;;;;;;15.97;15.37;;;23.80;93.80;;;;;;5089593;28;20474;-64
2023/05/10 11:21:48;;;;;;;15.57;15.03;;;23.80;93.60;;;;;;5089835;28;20841;-66
2023/05/10 11:24:18;;;;;;;16.03;15.47;;;23.80;93.80;;;;;;5090311;28;20458;-67
2023/05/10 11:26:45;;;;;;;17.07;16.47;;;23.70;93.80;;;;;;5090601;28;20482;-66
2023/05/10 11:29:14;;;;;;;16.20;15.60;;;23.70;94.20;;;;;;5089495;28;20474;-68
2023/05/10 11:31:44;;;;;;;16.80;16.20;;;23.70;93.90;;;;;;5089630;28;20893;-68
2023/05/10 11:34:12;;;;;;;17.60;16.90;;;23.80;93.90;;;;;;5089351;28;20586;-66
2023/05/10 11:36:39;;;;;;;16.00;15.40;;;23.70;94.00;;;;;;5089530;28;20965;-67
2023/05/10 11:39:06;;;;;;;15.87;15.27;;;23.70;93.90;;;;;;5089600;28;20457;-66
2023/05/10 11:41:35;;;;;;;16.87;16.27;;;23.70;93.90;;;;;;5089923;28;20478;-67
2023/05/10 11:44:03;;;;;;;16.53;15.90;;;23.80;94.10;;;;;;5090193;28;20516;-67
2023/05/10 11:46:30;;;;;;;16.80;16.20;;;23.80;93.60;;;;;;5090470;28;20450;-66
2023/05/10 11:49:00;;;;;;;17.10;16.40;;;23.80;92.70;;;;;;5090438;28;20470;-67
2023/05/10 11:51:27;;;;;;;16.48;15.88;;;23.80;92.80;;;;;;5090330;28;20668;-69
2023/05/10 11:53:56;;;;;;;14.63;14.02;;;23.80;93.20;;;;;;5079907;28;20434;-66
2023/05/10 11:56:23;;;;;;;16.23;15.63;;;23.80;93.40;;;;;;5076069;28;20441;-66
2023/05/10 11:58:56;;;;;;;17.00;16.30;;;23.80;93.40;;;;;;5077761;28;20219;-66
2023/05/10 12:01:24;;;;;;;14.70;14.10;;;23.90;93.20;;;;;;5075492;28;20578;-66
2023/05/10 12:03:52;;;;;;;16.50;15.90;;;23.90;93.40;;;;;;5075951;28;20241;-66
2023/05/10 12:06:20;;;;;;;16.67;16.07;;;23.90;93.50;;;;;;5076905;28;20482;-65
2023/05/10 12:08:52;;;;;;;16.30;15.60;;;24.00;93.70;;;;;;5076454;28;20482;-67
2023/05/10 12:11:20;;;;;;;16.97;16.37;;;24.00;93.50;;;;;;5076145;28;20926;-67
2023/05/10 12:13:48;;;;;;;17.00;16.40;;;23.90;93.70;;;;;;5076373;28;20538;-67
2023/05/10 12:16:18;;;;;;;16.60;15.90;;;23.90;93.60;;;;;;5075786;28;20450;-66
2023/05/10 12:18:46;;;;;;;16.53;15.73;;;23.80;93.70;;;;;;5075268;28;20529;-67
2023/05/10 12:21:13;;;;;;;16.00;15.40;;;23.80;93.40;;;;;;5075933;28;20439;-67
2023/05/10 12:23:40;;;;;;;16.53;15.93;;;23.80;93.40;;;;;;5075631;28;20486;-68
2023/05/10 12:26:10;;;;;;;17.47;16.63;;;23.90;93.30;;;;;;5075449;28;20910;-65
2023/05/10 12:28:39;;;;;;;16.10;15.60;;;23.90;93.40;;;;;;5075868;28;20967;-66
2023/05/10 12:31:07;;;;;;;16.70;16.13;;;23.80;93.20;;;;;;5076669;28;20444;-66
2023/05/10 12:33:42;;;;;;;15.87;15.27;;;23.80;93.30;;;;;;5075621;28;20497;-65
2023/05/10 12:36:10;;;;;;;16.27;15.67;;;23.80;93.30;;;;;;5075743;28;20443;-66
2023/05/10 12:38:38;;;;;;;15.20;14.63;;;23.90;93.30;;;;;;5075897;28;20532;-68
2023/05/10 12:41:08;;;;;;;16.37;15.77;;;23.80;93.20;;;;;;5074904;28;20483;-64
2023/05/10 12:43:36;;;;;;;16.03;15.53;;;23.90;93.40;;;;;;5074383;28;20514;-65
2023/05/10 12:46:08;;;;;;;16.47;15.87;;;23.90;93.10;;;;;;5074773;28;20482;-66
2023/05/10 12:48:35;;;;;;;16.83;16.13;;;23.90;93.10;;;;;;5074919;28;20439;-64